Time;durP1;ratioP1;P1;durP2;ratioP2;P2;SDS_P1;SDS_P2;PMS_P1;PMS_P2;Temp;Humidity;BMP_temperature;BMP_pressure;BME280_temperature;BME280_humidity;BME280_pressure;Samples;Min_cycle;Max_cycle;Signal;HPM_P1;HPM_P2
2021/03/22 00:00:44;;;;;;;8.48;5.58;;;;;;;-0.21;64.88;100544.77;1743807;81;20916;-73
2021/03/22 00:03:14;;;;;;;8.58;6.28;;;;;;;-0.19;64.77;100542.63;1743934;82;21014;-74
2021/03/22 00:05:43;;;;;;;8.35;5.65;;;;;;;-0.21;64.65;100533.18;1744493;82;20995;-71
2021/03/22 00:08:12;;;;;;;7.90;5.53;;;;;;;-0.21;64.52;100530.60;1749891;82;21026;-72
2021/03/22 00:10:42;;;;;;;7.92;6.00;;;;;;;-0.19;64.33;100530.59;1749708;80;21270;-72
2021/03/22 00:13:11;;;;;;;9.60;5.95;;;;;;;-0.21;64.31;100519.00;1749707;82;20959;-72
2021/03/22 00:15:42;;;;;;;8.35;5.35;;;;;;;-0.19;64.25;100519.44;1749728;81;20975;-72
2021/03/22 00:18:14;;;;;;;7.12;5.30;;;;;;;-0.21;64.22;100506.56;1749729;82;21023;-73
2021/03/22 00:20:42;;;;;;;9.78;6.55;;;;;;;-0.21;64.16;100512.56;1749815;82;20986;-72
2021/03/22 00:23:11;;;;;;;8.50;5.70;;;;;;;-0.22;64.11;100501.02;1749804;82;21489;-73
2021/03/22 00:25:40;;;;;;;7.55;5.55;;;;;;;-0.22;64.02;100501.02;1749722;80;21349;-72
2021/03/22 00:28:10;;;;;;;9.28;6.87;;;;;;;-0.24;64.06;100504.90;1749797;82;20941;-74
2021/03/22 00:30:40;;;;;;;7.17;5.40;;;;;;;-0.25;64.01;100500.61;1749840;81;20939;-73
2021/03/22 00:33:10;;;;;;;6.67;5.60;;;;;;;-0.27;64.03;100500.23;1749920;81;21388;-73
2021/03/22 00:35:41;;;;;;;6.70;5.17;;;;;;;-0.29;64.04;100494.25;1749937;80;21484;-72
2021/03/22 00:38:10;;;;;;;7.80;5.35;;;;;;;-0.29;64.01;100491.67;1699077;80;21018;-72
2021/03/22 00:40:40;;;;;;;6.67;5.78;;;;;;;-0.32;64.04;100501.59;1749759;82;20927;-71
2021/03/22 00:43:09;;;;;;;7.72;5.53;;;;;;;-0.32;64.13;100511.06;1749732;82;20939;-72
2021/03/22 00:45:39;;;;;;;8.73;5.70;;;;;;;-0.32;64.21;100505.91;1749619;81;20955;-73
2021/03/22 00:48:08;;;;;;;7.47;5.08;;;;;;;-0.34;64.28;100503.79;1749727;81;21382;-72
2021/03/22 00:50:40;;;;;;;6.97;5.45;;;;;;;-0.35;64.34;100504.68;1749633;82;20982;-72
2021/03/22 00:53:10;;;;;;;7.30;5.80;;;;;;;-0.37;64.47;100496.12;1749894;82;21512;-73
2021/03/22 00:55:38;;;;;;;8.23;5.62;;;;;;;-0.38;64.57;100501.69;1749712;82;21492;-72
2021/03/22 00:58:06;;;;;;;9.98;6.00;;;;;;;-0.40;64.69;100500.02;1749789;82;20947;-73
2021/03/22 01:00:42;;;;;;;7.33;5.62;;;;;;;-0.40;64.78;100502.59;1749758;82;21405;-72
2021/03/22 01:03:21;;;;;;;9.15;5.83;;;;;;;-0.43;64.86;100504.34;1749670;82;20967;-72
2021/03/22 01:05:50;;;;;;;8.00;5.58;;;;;;;-0.46;64.92;100505.70;1749268;81;21485;-72
2021/03/22 01:08:19;;;;;;;7.53;5.42;;;;;;;-0.47;64.98;100499.27;1735713;82;20897;-71
2021/03/22 01:11:05;;;;;;;8.30;5.92;;;;;;;-0.51;65.06;100501.48;1735753;82;20928;-71
2021/03/22 01:13:44;;;;;;;10.28;6.45;;;;;;;-0.51;65.07;100495.92;1735716;82;22399;-71
2021/03/22 01:16:14;;;;;;;9.63;6.42;;;;;;;-0.52;65.14;100500.64;1735639;82;20983;-72
2021/03/22 01:21:37;;;;;;;8.08;5.72;;;;;;;-0.53;65.40;100502.81;1813551;79;23219;-72
2021/03/22 01:24:06;;;;;;;8.08;5.55;;;;;;;-0.60;65.54;100497.36;1784128;80;20930;-70
2021/03/22 01:26:35;;;;;;;9.30;6.25;;;;;;;-0.63;65.57;100494.81;1784069;80;21365;-71
2021/03/22 01:29:15;;;;;;;10.48;7.70;;;;;;;-0.63;65.61;100494.37;1765654;80;21052;-72
2021/03/22 01:31:44;;;;;;;11.50;6.85;;;;;;;-0.66;65.63;100486.70;1753043;80;20902;-71
2021/03/22 01:34:13;;;;;;;9.98;6.28;;;;;;;-0.67;65.81;100486.72;1753026;81;20938;-72
2021/03/22 01:36:42;;;;;;;8.13;6.45;;;;;;;-0.68;65.91;100484.59;1753121;81;21435;-72
2021/03/22 01:39:13;;;;;;;8.23;6.30;;;;;;;-0.71;65.98;100485.94;1753082;81;21446;-71
2021/03/22 01:42:11;;;;;;;11.00;5.72;;;;;;;-0.73;65.98;100481.69;1752696;81;21048;-70
2021/03/22 01:44:43;;;;;;;9.80;6.25;;;;;;;-0.74;66.07;100474.83;1753068;81;21509;-71
2021/03/22 01:47:18;;;;;;;8.08;6.33;;;;;;;-0.76;66.12;100471.42;1753032;80;21023;-72
2021/03/22 01:49:55;;;;;;;;;;;;;;;-0.77;66.07;100473.60;1728681;81;20946;-71
2021/03/22 01:52:23;;;;;;;8.48;6.30;;;;;;;-0.79;66.14;100472.77;1753152;81;21359;-72
2021/03/22 01:54:52;;;;;;;9.10;6.53;;;;;;;-0.80;66.24;100480.94;1753010;81;21005;-71
2021/03/22 01:57:35;;;;;;;8.45;7.30;;;;;;;-0.82;66.37;100469.81;1753076;81;20951;-72
2021/03/22 02:00:27;;;;;;;12.45;8.03;;;;;;;-0.83;66.38;100469.38;1752978;80;20942;-72
2021/03/22 02:03:09;;;;;;;10.18;7.15;;;;;;;-0.85;66.46;100468.11;1752520;81;20993;-73
2021/03/22 02:05:43;;;;;;;11.38;7.83;;;;;;;-0.86;66.58;100462.56;1751632;80;22235;-74
2021/03/22 02:08:22;;;;;;;16.30;8.90;;;;;;;-0.87;66.61;100456.14;1753210;81;20993;-73
2021/03/22 02:10:49;;;;;;;12.78;8.40;;;;;;;-0.88;66.67;100461.73;1753016;81;21025;-73
2021/03/22 02:13:22;;;;;;;12.90;8.60;;;;;;;-0.89;66.71;100452.33;1753096;81;20950;-71
2021/03/22 02:16:12;;;;;;;12.82;8.50;;;;;;;-0.88;66.73;100446.73;1753201;81;21033;-71
2021/03/22 02:18:55;;;;;;;15.03;8.58;;;;;;;-0.89;66.74;100452.73;1753031;81;21351;-72
2021/03/22 02:21:46;;;;;;;13.88;8.55;;;;;;;-0.90;66.83;100439.03;1714420;82;20982;-72
2021/03/22 02:24:47;;;;;;;12.07;9.70;;;;;;;-0.91;66.82;100445.06;1740059;82;20990;-73
2021/03/22 02:27:57;;;;;;;12.33;8.58;;;;;;;-0.92;66.87;100439.93;1740102;82;20954;-72
2021/03/22 02:31:05;;;;;;;13.22;10.00;;;;;;;-0.92;66.99;100454.09;1740340;81;20943;-72
2021/03/22 02:34:03;;;;;;;18.87;11.18;;;;;;;-0.94;67.05;100450.23;1740093;82;21286;-72
2021/03/22 02:36:40;;;;;;;16.55;10.18;;;;;;;-0.95;67.09;100454.98;1740478;81;21045;-72
2021/03/22 02:39:08;;;;;;;15.53;10.18;;;;;;;-0.95;67.13;100455.43;1739628;82;20976;-71
2021/03/22 02:41:55;;;;;;;14.87;11.18;;;;;;;-0.95;67.15;100459.30;1739562;82;20963;-73
2021/03/22 02:44:26;;;;;;;24.05;12.25;;;;;;;-0.98;67.24;100445.17;1738816;82;21026;-72
2021/03/22 02:46:58;;;;;;;19.35;13.03;;;;;;;-1.00;67.30;100440.06;1739474;82;21361;-71
2021/03/22 02:49:27;;;;;;;17.55;11.03;;;;;;;-1.00;67.38;100445.62;1739462;82;20931;-73
2021/03/22 02:52:31;;;;;;;13.80;10.85;;;;;;;-1.00;67.39;100448.20;1739432;82;20911;-73
2021/03/22 02:55:29;;;;;;;16.67;10.88;;;;;;;-0.98;67.37;100438.28;1739439;81;21026;-74
2021/03/22 02:58:09;;;;;;;20.43;13.45;;;;;;;-0.99;67.50;100436.60;1679269;84;20949;-74
2021/03/22 03:01:01;;;;;;;19.17;10.78;;;;;;;-0.98;67.57;100431.85;1678981;83;22319;-74
2021/03/22 03:03:45;;;;;;;20.77;11.28;;;;;;;-0.93;67.61;100433.94;1816071;79;22613;-76
2021/03/22 03:06:13;;;;;;;20.00;12.60;;;;;;;-0.99;67.65;100430.17;1789294;80;21374;-74
2021/03/22 03:08:42;;;;;;;18.12;12.45;;;;;;;-0.99;67.82;100427.59;1789153;80;21149;-72
2021/03/22 03:11:11;;;;;;;19.55;12.88;;;;;;;-1.01;67.87;100433.20;1789095;80;21037;-72
2021/03/22 03:13:39;;;;;;;21.97;14.78;;;;;;;-1.01;67.93;100429.78;1789174;80;20994;-72
2021/03/22 03:16:09;;;;;;;36.75;21.62;;;;;;;-1.02;67.99;100428.94;1789326;80;21293;-72
2021/03/22 03:18:37;;;;;;;17.92;11.97;;;;;;;-1.02;68.12;100426.78;1789678;80;20926;-72
2021/03/22 03:21:07;;;;;;;16.07;12.20;;;;;;;-1.01;68.15;100428.05;1790089;80;21358;-72
2021/03/22 03:23:35;;;;;;;21.57;13.58;;;;;;;-1.03;68.35;100424.65;1789358;80;20931;-74
2021/03/22 03:26:03;;;;;;;15.25;10.93;;;;;;;-1.05;68.42;100418.23;1789292;80;20966;-72
2021/03/22 03:28:31;;;;;;;21.35;13.38;;;;;;;-1.05;68.59;100415.66;1789084;80;20926;-74
2021/03/22 03:30:59;;;;;;;18.52;13.28;;;;;;;-1.03;68.66;100413.07;1789146;80;21023;-72
2021/03/22 03:33:28;;;;;;;25.62;14.03;;;;;;;-1.01;68.77;100416.47;1789154;80;21797;-73
2021/03/22 03:35:57;;;;;;;21.25;12.15;;;;;;;-0.96;68.74;100417.23;1789104;80;20950;-72
2021/03/22 03:38:25;;;;;;;20.37;13.08;;;;;;;-0.92;68.71;100411.17;1789206;80;21101;-72
2021/03/22 03:40:53;;;;;;;18.32;13.93;;;;;;;-0.88;68.71;100412.83;1789209;80;21017;-72
2021/03/22 03:43:22;;;;;;;22.62;13.20;;;;;;;-0.84;68.70;100414.48;1789090;80;21460;-73
2021/03/22 03:45:51;;;;;;;19.98;12.40;;;;;;;-0.79;68.68;100405.84;1789244;80;21345;-73
2021/03/22 03:48:24;;;;;;;19.62;12.47;;;;;;;-0.73;68.58;100408.31;1789100;80;21016;-73
2021/03/22 03:51:01;;;;;;;17.50;12.45;;;;;;;-0.69;68.59;100411.22;1789061;80;20994;-73
2021/03/22 03:53:29;;;;;;;16.95;12.10;;;;;;;-0.67;68.53;100410.34;1789098;80;21057;-73
2021/03/22 03:55:59;;;;;;;22.27;14.15;;;;;;;-0.65;68.64;100402.13;1789147;80;20935;-74
2021/03/22 03:58:27;;;;;;;21.97;14.20;;;;;;;-0.64;68.68;100409.00;1789201;80;21352;-73
2021/03/22 04:00:55;;;;;;;19.42;13.13;;;;;;;-0.65;68.82;100404.70;1788987;80;20946;-72
2021/03/22 04:03:34;;;;;;;18.45;13.20;;;;;;;-0.65;68.89;100404.70;1783178;80;20955;-73
2021/03/22 04:06:21;;;;;;;17.23;13.03;;;;;;;-0.65;68.99;100402.13;1781343;80;21405;-74
2021/03/22 04:08:55;;;;;;;20.80;14.23;;;;;;;-0.65;69.11;100405.99;1781359;80;20967;-74
2021/03/22 04:11:28;;;;;;;21.37;14.50;;;;;;;-0.64;69.18;100402.56;1781564;80;21666;-73
2021/03/22 04:13:56;;;;;;;23.57;14.85;;;;;;;-0.63;69.32;100402.11;1781072;80;21516;-73
2021/03/22 04:16:26;;;;;;;19.98;13.00;;;;;;;-0.64;69.39;100398.70;1780800;80;21035;-71
2021/03/22 04:18:54;;;;;;;21.27;14.15;;;;;;;-0.59;69.59;100405.50;1780796;80;21342;-74
2021/03/22 04:21:26;;;;;;;21.80;15.68;;;;;;;-0.57;69.59;100398.15;1780699;80;21412;-74
2021/03/22 04:23:54;;;;;;;28.52;16.40;;;;;;;-0.54;69.69;100399.81;1780871;80;22172;-72
2021/03/22 04:26:22;;;;;;;27.67;16.85;;;;;;;-0.50;69.79;100394.58;1780666;80;21006;-73
2021/03/22 04:28:50;;;;;;;25.10;16.77;;;;;;;-0.46;69.79;100404.40;1780684;80;21007;-74
2021/03/22 04:31:22;;;;;;;30.62;16.50;;;;;;;-0.39;69.78;100408.55;1780888;80;21358;-75
2021/03/22 04:33:51;;;;;;;21.77;16.70;;;;;;;-0.34;69.83;100395.14;1780772;80;21019;-74
2021/03/22 04:36:21;;;;;;;22.95;16.32;;;;;;;-0.25;69.85;100403.14;1780693;80;21202;-74
2021/03/22 04:38:49;;;;;;;25.32;16.30;;;;;;;-0.21;69.80;100402.20;1780667;80;21053;-73
2021/03/22 04:41:18;;;;;;;26.90;19.42;;;;;;;-0.15;69.87;100399.52;1780742;80;20934;-74
2021/03/22 04:43:46;;;;;;;39.15;24.65;;;;;;;-0.09;69.74;100392.96;1780655;80;21098;-76
2021/03/22 04:46:14;;;;;;;35.55;18.35;;;;;;;-0.05;69.78;100393.73;1780754;80;20916;-74
2021/03/22 04:48:44;;;;;;;27.30;16.95;;;;;;;0.05;69.77;100404.27;1777703;80;21293;-75
2021/03/22 04:51:12;;;;;;;24.85;15.78;;;;;;;0.08;69.75;100390.47;1780656;80;21062;-75
2021/03/22 04:53:40;;;;;;;19.80;13.60;;;;;;;0.11;69.73;100392.97;1780691;80;20983;-75
2021/03/22 04:56:08;;;;;;;20.77;13.85;;;;;;;0.13;69.75;100395.08;1780619;80;20932;-75
2021/03/22 04:58:36;;;;;;;18.27;13.72;;;;;;;0.15;69.76;100389.01;1780725;80;21006;-74
2021/03/22 05:01:04;;;;;;;19.77;13.38;;;;;;;0.18;69.93;100393.28;1780880;80;21811;-74
2021/03/22 05:03:33;;;;;;;19.48;13.08;;;;;;;0.19;69.94;100399.67;1780547;80;21028;-74
2021/03/22 05:06:03;;;;;;;19.17;13.68;;;;;;;0.20;70.02;100389.78;1780704;80;20972;-75
2021/03/22 05:08:31;;;;;;;23.83;16.65;;;;;;;0.22;70.09;100388.44;1780653;80;21018;-74
2021/03/22 05:11:00;;;;;;;24.43;14.05;;;;;;;0.23;70.23;100385.44;1780984;80;21026;-73
2021/03/22 05:13:30;;;;;;;20.50;13.83;;;;;;;0.25;70.31;100398.70;1780762;80;21436;-73
2021/03/22 05:15:58;;;;;;;20.08;14.10;;;;;;;0.27;70.33;100390.50;1780638;80;20958;-75
2021/03/22 05:18:30;;;;;;;17.92;13.55;;;;;;;0.31;70.32;100389.98;1780723;80;21429;-74
2021/03/22 05:21:02;;;;;;;19.57;12.75;;;;;;;0.33;70.44;100398.08;1780780;80;21054;-75
2021/03/22 05:23:31;;;;;;;21.35;13.88;;;;;;;0.37;70.43;100393.72;1780706;80;21014;-74
2021/03/22 05:25:59;;;;;;;21.55;15.98;;;;;;;0.41;70.40;100399.22;1780749;80;21448;-72
2021/03/22 05:28:30;;;;;;;20.75;13.65;;;;;;;0.43;70.41;100394.88;1780658;80;20955;-74
2021/03/22 05:30:58;;;;;;;23.60;14.63;;;;;;;0.44;70.47;100395.27;1780642;80;20891;-75
2021/03/22 05:33:26;;;;;;;20.75;14.07;;;;;;;0.45;70.45;100396.15;1780698;80;20935;-76
2021/03/22 05:35:58;;;;;;;33.38;19.40;;;;;;;0.50;70.43;100393.02;1780764;80;21496;-74
2021/03/22 05:38:26;;;;;;;22.67;14.53;;;;;;;0.54;70.51;100393.36;1780782;80;22283;-75
2021/03/22 05:41:01;;;;;;;19.45;12.90;;;;;;;0.63;70.42;100397.47;1780587;80;21472;-74
2021/03/22 05:43:47;;;;;;;19.57;13.78;;;;;;;0.67;70.29;100390.03;1780913;80;21057;-74
2021/03/22 05:46:29;;;;;;;16.82;13.72;;;;;;;0.73;70.17;100393.77;1780641;80;20907;-76
2021/03/22 05:49:26;;;;;;;21.68;14.38;;;;;;;0.77;70.18;100393.66;1780754;80;20951;-75
2021/03/22 05:52:32;;;;;;;16.45;13.05;;;;;;;0.82;70.17;100386.68;1780789;80;21406;-76
2021/03/22 05:55:35;;;;;;;18.23;12.58;;;;;;;0.87;70.10;100386.98;1780685;80;21003;-76
2021/03/22 05:58:15;;;;;;;21.93;13.95;;;;;;;0.92;69.94;100391.17;1780760;80;21427;-76
2021/03/22 06:01:13;;;;;;;21.55;14.53;;;;;;;0.97;69.73;100383.31;1780578;80;20987;-74
2021/03/22 06:03:47;;;;;;;26.05;15.03;;;;;;;1.01;69.61;100384.48;1782111;80;21009;-76
2021/03/22 06:06:30;;;;;;;22.17;14.80;;;;;;;1.02;69.59;100382.33;1783495;80;21364;-74
2021/03/22 06:09:26;;;;;;;18.85;13.10;;;;;;;1.07;69.22;100377.05;1783290;80;21097;-74
2021/03/22 06:12:31;;;;;;;18.55;12.70;;;;;;;1.11;69.04;100377.38;1783670;80;21076;-74
2021/03/22 06:15:20;;;;;;;18.70;13.35;;;;;;;1.13;68.79;100384.62;1783460;80;21026;-74
2021/03/22 06:18:18;;;;;;;18.85;13.18;;;;;;;1.19;68.52;100381.05;1783448;80;21065;-74
2021/03/22 06:20:48;;;;;;;16.42;13.13;;;;;;;1.23;68.32;100383.97;1783394;80;22417;-73
2021/03/22 06:23:40;;;;;;;18.07;12.78;;;;;;;1.22;68.44;100387.00;1755313;80;21146;-74
2021/03/22 06:26:39;;;;;;;16.25;12.33;;;;;;;1.27;68.33;100385.59;1783535;80;20990;-74
2021/03/22 06:29:24;;;;;;;19.35;13.32;;;;;;;1.27;68.23;100378.26;1783303;80;20923;-73
2021/03/22 06:32:00;;;;;;;19.17;12.35;;;;;;;1.26;68.39;100380.45;1783412;80;21027;-73
2021/03/22 06:34:56;;;;;;;24.82;13.98;;;;;;;1.26;68.29;100373.55;1783366;80;21218;-73
2021/03/22 06:37:30;;;;;;;19.82;12.98;;;;;;;1.27;68.34;100370.52;1779538;80;20955;-73
2021/03/22 06:40:28;;;;;;;17.83;13.90;;;;;;;1.30;68.36;100373.03;1783797;80;21353;-74
2021/03/22 06:43:21;;;;;;;20.15;13.45;;;;;;;1.32;68.03;100375.13;1783330;80;21128;-75
2021/03/22 06:46:09;;;;;;;15.50;12.58;;;;;;;1.37;68.06;100368.95;1783371;80;20923;-75
2021/03/22 06:48:38;;;;;;;19.10;13.43;;;;;;;1.44;67.83;100370.92;1783440;80;21327;-74
2021/03/22 06:51:15;;;;;;;17.17;13.58;;;;;;;1.47;67.83;100372.16;1783401;80;20943;-88
2021/03/22 06:53:49;;;;;;;22.65;12.37;;;;;;;1.49;67.56;100366.50;1783685;80;21041;-89
2021/03/22 06:56:29;;;;;;;;;;;;;;;1.56;67.55;100368.48;1786516;80;20943;-90
2021/03/22 06:59:21;;;;;;;17.82;12.47;;;;;;;1.64;67.37;100375.56;1783910;80;20135;-88
2021/03/22 07:01:49;;;;;;;23.22;13.20;;;;;;;1.72;67.01;100372.33;1784184;80;21212;-88
2021/03/22 07:04:32;;;;;;;16.35;12.15;;;;;;;1.82;66.35;100371.62;1784044;80;21353;-84
2021/03/22 07:07:17;;;;;;;22.40;13.40;;;;;;;1.93;66.29;100375.20;1783709;80;21038;-79
2021/03/22 07:09:57;;;;;;;17.17;12.10;;;;;;;2.01;65.84;100370.21;1777138;80;21380;-84
2021/03/22 07:12:36;;;;;;;21.82;12.50;;;;;;;2.11;65.61;100374.66;1778596;80;20943;-86
2021/03/22 07:15:29;;;;;;;15.68;11.00;;;;;;;2.19;65.33;100371.41;1783448;80;21312;-76
2021/03/22 07:18:07;;;;;;;20.92;13.28;;;;;;;2.32;65.04;100362.85;1783330;80;20939;-76
2021/03/22 07:20:39;;;;;;;18.32;12.53;;;;;;;2.43;64.32;100356.90;1781127;80;20946;-76
2021/03/22 07:23:30;;;;;;;15.23;11.40;;;;;;;2.55;64.13;100354.37;1783343;80;20947;-76
2021/03/22 07:26:14;;;;;;;17.57;12.73;;;;;;;2.67;63.26;100360.47;1781339;80;20975;-80
2021/03/22 07:29:22;;;;;;;15.08;11.12;;;;;;;2.82;63.25;100357.82;1783465;80;21342;-84
2021/03/22 07:32:21;;;;;;;18.67;12.05;;;;;;;3.03;62.38;100348.97;1784087;80;21014;-84
2021/03/22 07:35:30;;;;;;;14.43;11.10;;;;;;;3.25;61.82;100350.40;1749241;81;21040;-86
2021/03/22 07:38:23;;;;;;;17.37;11.75;;;;;;;3.42;60.54;100345.45;1749238;81;21511;-83
2021/03/22 07:40:58;;;;;;;15.88;11.57;;;;;;;3.59;60.03;100343.58;1749217;82;21021;-75
2021/03/22 07:44:23;;;;;;;16.90;11.00;;;;;;;3.76;59.08;100335.63;1748960;81;21214;-74
2021/03/22 07:47:30;;;;;;;17.27;12.25;;;;;;;3.89;58.26;100337.73;1749102;82;21582;-74
2021/03/22 07:50:26;;;;;;;15.75;10.28;;;;;;;4.27;58.17;100330.69;1847773;76;22527;-74
2021/03/22 07:53:22;;;;;;;16.45;11.90;;;;;;;4.55;57.16;100322.67;1788280;79;20919;-74
2021/03/22 07:56:01;;;;;;;17.70;11.75;;;;;;;4.93;56.33;100321.10;1818032;77;21416;-71
2021/03/22 07:58:52;;;;;;;19.77;12.73;;;;;;;5.34;55.22;100315.92;1803429;79;21022;-74
2021/03/22 08:02:07;;;;;;;15.55;10.85;;;;;;;5.78;54.26;100313.55;1817982;78;21083;-70
2021/03/22 08:04:59;;;;;;;13.60;10.15;;;;;;;6.33;53.06;100312.34;1817937;79;20887;-70
2021/03/22 08:07:54;;;;;;;13.30;10.40;;;;;;;7.09;50.63;100310.81;1806769;79;21352;-72
2021/03/22 08:10:41;;;;;;;14.83;10.15;;;;;;;7.67;48.08;100309.13;1817933;79;21090;-71
2021/03/22 08:13:44;;;;;;;13.25;10.38;;;;;;;8.17;47.01;100303.86;1817964;79;21424;-71
2021/03/22 08:17:02;;;;;;;15.05;12.75;;;;;;;8.65;46.98;100305.53;1818002;78;20975;-78
2021/03/22 08:19:48;;;;;;;15.35;11.43;;;;;;;9.31;45.70;100296.89;1817650;78;21539;-78
2021/03/22 08:22:43;;;;;;;12.58;10.55;;;;;;;9.94;42.90;100289.97;1818067;77;20915;-77
2021/03/22 08:28:40;;;;;;;13.70;10.28;;;;;;;10.69;40.66;100277.75;1646566;85;21022;-77
2021/03/22 08:31:40;;;;;;;10.75;8.78;;;;;;;10.99;39.41;100275.36;1645173;85;21012;-78
2021/03/22 08:34:44;;;;;;;12.25;9.50;;;;;;;11.28;38.55;100263.36;1684090;84;21088;-78
2021/03/22 08:37:19;;;;;;;10.32;9.23;;;;;;;11.46;37.71;100258.62;1680224;83;20960;-77
2021/03/22 08:40:17;;;;;;;11.15;9.75;;;;;;;11.68;38.45;100249.59;1684064;83;21361;-77
2021/03/22 08:42:53;;;;;;;15.43;9.88;;;;;;;12.07;37.39;100249.52;1684222;84;21435;-78
2021/03/22 08:45:43;;;;;;;18.17;9.05;;;;;;;12.40;35.38;100254.11;1684306;83;20986;-77
2021/03/22 08:48:18;;;;;;;9.25;8.13;;;;;;;12.53;35.42;100245.67;1681993;83;21624;-74
2021/03/22 08:50:46;;;;;;;14.15;10.78;;;;;;;12.77;35.07;100248.75;1684489;83;20981;-75
2021/03/22 08:53:17;;;;;;;9.43;8.25;;;;;;;13.02;34.97;100245.09;1693555;83;21378;-74
2021/03/22 08:55:50;;;;;;;13.10;8.75;;;;;;;13.16;33.32;100239.63;1671193;85;21002;-74
2021/03/22 08:58:29;;;;;;;9.08;7.60;;;;;;;13.23;33.54;100241.31;1696130;83;21070;-77
2021/03/22 09:01:27;;;;;;;9.93;7.58;;;;;;;13.37;32.97;100238.95;1670870;85;21097;-76
2021/03/22 09:04:00;;;;;;;9.40;8.30;;;;;;;13.44;32.63;100233.06;1695289;83;21501;-71
2021/03/22 09:06:29;;;;;;;10.10;7.70;;;;;;;13.65;32.30;100225.28;1638813;86;22367;-72
2021/03/22 09:09:19;;;;;;;11.18;8.00;;;;;;;13.65;32.30;100225.28;1695552;83;21055;-71
2021/03/22 09:11:49;;;;;;;8.03;6.95;;;;;;;13.84;32.32;100233.03;1670698;84;20950;-71
2021/03/22 09:14:35;;;;;;;8.08;7.28;;;;;;;13.96;31.49;100225.48;1695548;83;20936;-72
2021/03/22 09:17:05;;;;;;;8.70;7.37;;;;;;;13.96;31.26;100228.56;1670742;86;21501;-76
2021/03/22 09:19:41;;;;;;;7.37;6.62;;;;;;;13.93;31.73;100219.59;1647738;84;22251;-80
2021/03/22 09:22:16;;;;;;;7.87;7.00;;;;;;;13.89;31.09;100222.50;1669011;86;21002;-80
2021/03/22 09:24:47;;;;;;;7.42;6.65;;;;;;;13.94;31.00;100218.17;1695810;83;20989;-84
2021/03/22 09:27:21;;;;;;;8.10;7.30;;;;;;;13.96;31.86;100214.06;1684035;84;21093;-81
2021/03/22 09:30:10;;;;;;;7.37;6.62;;;;;;;14.01;31.64;100215.38;1753079;80;21021;-83
2021/03/22 09:32:41;;;;;;;8.60;6.00;;;;;;;14.08;30.75;100208.64;1754216;80;21407;-86
2021/03/22 09:35:20;;;;;;;8.68;6.70;;;;;;;13.94;30.41;100210.72;1753834;80;21049;-81
2021/03/22 09:38:00;;;;;;;7.80;7.00;;;;;;;13.87;30.88;100211.23;1753973;80;21464;-82
2021/03/22 09:40:33;;;;;;;6.78;5.78;;;;;;;13.83;31.56;100210.29;1753748;80;21184;-84
2021/03/22 09:43:21;;;;;;;7.45;6.62;;;;;;;13.98;30.18;100206.39;1753475;81;21054;-82
2021/03/22 09:46:01;;;;;;;7.97;5.78;;;;;;;14.21;30.80;100203.70;1752833;80;22275;-78
2021/03/22 09:48:36;;;;;;;6.42;5.85;;;;;;;14.51;30.16;100202.47;1752734;80;21049;-76
2021/03/22 09:51:10;;;;;;;6.85;6.15;;;;;;;14.73;29.35;100204.67;1752581;81;21372;-77
2021/03/22 09:54:03;;;;;;;6.40;5.80;;;;;;;14.80;29.80;100195.75;1752744;81;20990;-81
2021/03/22 09:56:38;;;;;;;8.08;5.72;;;;;;;14.95;29.13;100196.27;1752729;80;20977;-78
2021/03/22 09:59:26;;;;;;;6.97;6.03;;;;;;;15.07;28.72;100200.48;1752783;80;21359;-81
2021/03/22 10:01:59;;;;;;;6.50;5.87;;;;;;;15.17;28.88;100194.77;1740281;81;20970;-80
2021/03/22 10:04:32;;;;;;;8.13;6.65;;;;;;;15.39;28.91;100187.64;1752983;80;21474;-80
2021/03/22 10:07:12;;;;;;;6.00;5.42;;;;;;;15.75;28.96;100186.23;1752703;81;21123;-80
2021/03/22 10:10:01;;;;;;;8.15;7.35;;;;;;;15.98;27.34;100188.63;1723319;81;21030;-78
2021/03/22 10:12:37;;;;;;;7.55;6.10;;;;;;;16.04;27.47;100182.79;1752634;80;21049;-77
2021/03/22 10:15:15;;;;;;;8.48;7.05;;;;;;;16.05;27.87;100187.95;1752230;80;21037;-77
2021/03/22 10:17:52;;;;;;;7.70;6.87;;;;;;;16.07;27.61;100180.69;1752621;81;21057;-79
2021/03/22 10:20:45;;;;;;;8.28;6.25;;;;;;;16.16;27.49;100177.70;1752727;81;20899;-79
2021/03/22 10:24:07;;;;;;;7.17;6.47;;;;;;;15.96;27.83;100183.46;1752743;81;20946;-78
2021/03/22 10:26:43;;;;;;;7.28;6.08;;;;;;;16.02;27.85;100175.48;1752704;81;21436;-76
2021/03/22 10:29:28;;;;;;;11.33;6.80;;;;;;;16.12;27.05;100173.69;1752667;81;21591;-79
2021/03/22 10:32:07;;;;;;;6.55;5.95;;;;;;;16.26;27.41;100172.42;1752814;81;21612;-79
2021/03/22 10:34:49;;;;;;;7.25;6.55;;;;;;;16.34;25.31;100163.28;1751866;81;21057;-77
2021/03/22 10:37:26;;;;;;;6.92;6.30;;;;;;;16.36;25.84;100161.33;1752778;81;21037;-78
2021/03/22 10:40:05;;;;;;;9.33;6.45;;;;;;;16.39;25.45;100162.39;1752734;80;21301;-77
2021/03/22 10:42:39;;;;;;;7.67;6.97;;;;;;;16.41;25.65;100154.28;1752661;81;21380;-78
2021/03/22 10:45:28;;;;;;;7.47;6.30;;;;;;;16.43;26.18;100151.88;1752689;80;21045;-78
2021/03/22 10:47:57;;;;;;;7.58;6.90;;;;;;;16.54;26.58;100148.20;1752634;81;20947;-78
2021/03/22 10:50:37;;;;;;;7.58;6.20;;;;;;;16.75;26.13;100142.75;1752652;81;21360;-78
2021/03/22 10:53:11;;;;;;;8.40;7.40;;;;;;;16.74;25.74;100136.63;1753102;80;21816;-83
2021/03/22 10:55:44;;;;;;;9.43;6.78;;;;;;;16.44;26.50;100142.12;1752860;81;21498;-76
2021/03/22 10:58:34;;;;;;;9.90;6.92;;;;;;;16.34;26.88;100132.38;1752372;81;21033;-76
2021/03/22 11:01:08;;;;;;;7.22;6.55;;;;;;;16.28;26.93;100132.11;1752794;80;21077;-79
2021/03/22 11:03:36;;;;;;;7.40;6.37;;;;;;;16.30;26.63;100118.25;1752809;81;20899;-77
2021/03/22 11:06:14;;;;;;;7.30;6.60;;;;;;;16.27;26.76;100123.31;1752915;80;22332;-86
2021/03/22 11:09:04;;;;;;;7.53;6.15;;;;;;;16.29;26.42;100120.53;1752788;81;20989;-82
2021/03/22 11:11:34;;;;;;;7.80;7.00;;;;;;;16.24;26.18;100108.23;1752741;80;20977;-80
2021/03/22 11:14:17;;;;;;;6.08;5.58;;;;;;;16.01;26.08;100108.53;1752762;80;20906;-80
2021/03/22 11:16:45;;;;;;;6.90;6.28;;;;;;;15.66;26.14;100113.00;1752910;80;20946;-80
2021/03/22 11:19:31;;;;;;;7.47;6.75;;;;;;;15.15;26.97;100108.72;1752944;81;21437;-79
2021/03/22 11:22:00;;;;;;;7.72;7.03;;;;;;;14.73;27.54;100104.86;1752651;80;21061;-79
2021/03/22 11:24:41;;;;;;;21.57;13.88;;;;;;;14.35;28.62;100104.96;1752798;81;21609;-80
2021/03/22 11:27:11;;;;;;;8.18;7.47;;;;;;;13.93;29.20;100108.39;1750582;80;21097;-78
2021/03/22 11:29:57;;;;;;;7.65;6.92;;;;;;;13.35;29.61;100110.00;1740344;82;21025;-79
2021/03/22 11:32:32;;;;;;;8.30;7.50;;;;;;;12.87;29.72;100102.34;1740361;81;21411;-80
2021/03/22 11:35:25;;;;;;;8.10;7.15;;;;;;;12.37;30.89;100100.03;1740784;82;21001;-79
2021/03/22 11:38:02;;;;;;;10.08;6.58;;;;;;;12.09;31.53;100096.00;1779154;79;22786;-80
2021/03/22 11:40:32;;;;;;;11.63;6.87;;;;;;;11.81;31.83;100098.03;1748442;81;20927;-78
2021/03/22 11:43:25;;;;;;;11.30;7.53;;;;;;;11.59;32.22;100109.75;1753308;82;21353;-80
2021/03/22 11:45:53;;;;;;;9.55;8.18;;;;;;;11.27;32.09;100100.23;1753135;78;20963;-81
2021/03/22 11:48:29;;;;;;;8.80;7.90;;;;;;;11.16;32.79;100100.53;1723421;81;20955;-75
2021/03/22 11:51:05;;;;;;;12.30;7.87;;;;;;;11.09;33.17;100103.20;1751693;80;20943;-77
2021/03/22 11:53:33;;;;;;;10.18;8.15;;;;;;;11.19;33.23;100095.06;1750153;82;21066;-79
2021/03/22 11:56:24;;;;;;;10.90;7.90;;;;;;;11.30;32.53;100097.41;1750194;82;21440;-80
2021/03/22 11:58:50;;;;;;;13.38;7.65;;;;;;;11.36;32.84;100098.25;1749816;82;21480;-80
2021/03/22 12:01:23;;;;;;;10.50;7.58;;;;;;;11.39;33.33;100096.74;1749799;82;20964;-78
2021/03/22 12:04:07;;;;;;;8.23;7.35;;;;;;;11.48;32.90;100089.51;1747617;82;21096;-82
2021/03/22 12:06:56;;;;;;;8.00;7.23;;;;;;;11.59;32.54;100083.48;1748815;81;21564;-79
2021/03/22 12:09:26;;;;;;;9.30;7.70;;;;;;;11.68;32.61;100076.72;1749611;82;21437;-78
2021/03/22 12:11:55;;;;;;;9.95;7.28;;;;;;;11.81;32.21;100084.06;1749595;82;21022;-80
2021/03/22 12:14:25;;;;;;;9.58;7.05;;;;;;;11.81;32.10;100087.52;1749750;80;21026;-79
2021/03/22 12:17:01;;;;;;;7.60;6.85;;;;;;;11.71;32.32;100086.99;1749660;82;21577;-78